sensor_id;sensor_type;location;lat;lon;timestamp;P1;durP1;ratioP1;P2;durP2;ratioP2
1719;SDS011;857;52.872;9.692;2022-10-31T00:01:08;19.00;;;15.43;;
1719;SDS011;857;52.872;9.692;2022-10-31T00:03:37;22.53;;;14.30;;
1719;SDS011;857;52.872;9.692;2022-10-31T00:06:05;19.37;;;14.77;;
1719;SDS011;857;52.872;9.692;2022-10-31T00:08:33;22.23;;;13.67;;
1719;SDS011;857;52.872;9.692;2022-10-31T00:11:01;17.20;;;13.27;;
1719;SDS011;857;52.872;9.692;2022-10-31T00:13:28;17.00;;;13.70;;
1719;SDS011;857;52.872;9.692;2022-10-31T00:15:56;17.80;;;13.47;;
1719;SDS011;857;52.872;9.692;2022-10-31T00:18:24;16.30;;;11.47;;
1719;SDS011;857;52.872;9.692;2022-10-31T00:20:59;15.23;;;10.70;;
1719;SDS011;857;52.872;9.692;2022-10-31T00:23:27;18.20;;;12.20;;
1719;SDS011;857;52.872;9.692;2022-10-31T00:25:59;18.17;;;11.40;;
1719;SDS011;857;52.872;9.692;2022-10-31T00:28:27;17.37;;;11.43;;
1719;SDS011;857;52.872;9.692;2022-10-31T00:30:57;15.83;;;10.60;;
1719;SDS011;857;52.872;9.692;2022-10-31T00:33:25;13.83;;;10.70;;
1719;SDS011;857;52.872;9.692;2022-10-31T00:35:53;16.80;;;13.03;;
1719;SDS011;857;52.872;9.692;2022-10-31T00:38:22;19.97;;;13.20;;
1719;SDS011;857;52.872;9.692;2022-10-31T00:40:50;13.40;;;11.43;;
1719;SDS011;857;52.872;9.692;2022-10-31T00:43:17;18.70;;;12.83;;
1719;SDS011;857;52.872;9.692;2022-10-31T00:45:45;14.63;;;11.53;;
1719;SDS011;857;52.872;9.692;2022-10-31T00:48:13;16.40;;;11.90;;
1719;SDS011;857;52.872;9.692;2022-10-31T00:50:41;16.30;;;11.20;;
1719;SDS011;857;52.872;9.692;2022-10-31T00:53:09;14.37;;;11.97;;
1719;SDS011;857;52.872;9.692;2022-10-31T00:55:38;22.97;;;13.77;;
1719;SDS011;857;52.872;9.692;2022-10-31T00:58:06;15.90;;;13.30;;
1719;SDS011;857;52.872;9.692;2022-10-31T01:00:33;16.90;;;14.13;;
1719;SDS011;857;52.872;9.692;2022-10-31T01:03:01;16.07;;;13.23;;
1719;SDS011;857;52.872;9.692;2022-10-31T01:05:29;20.87;;;15.23;;
1719;SDS011;857;52.872;9.692;2022-10-31T01:07:57;19.47;;;14.03;;
1719;SDS011;857;52.872;9.692;2022-10-31T01:10:26;18.37;;;14.00;;
1719;SDS011;857;52.872;9.692;2022-10-31T01:12:55;28.13;;;15.77;;
1719;SDS011;857;52.872;9.692;2022-10-31T01:15:23;21.00;;;13.40;;
1719;SDS011;857;52.872;9.692;2022-10-31T01:17:51;23.53;;;14.17;;
1719;SDS011;857;52.872;9.692;2022-10-31T01:20:18;23.50;;;14.00;;
1719;SDS011;857;52.872;9.692;2022-10-31T01:22:46;20.13;;;14.77;;
1719;SDS011;857;52.872;9.692;2022-10-31T01:25:14;19.37;;;14.97;;
1719;SDS011;857;52.872;9.692;2022-10-31T01:27:42;19.77;;;15.47;;
1719;SDS011;857;52.872;9.692;2022-10-31T01:30:12;21.63;;;15.10;;
1719;SDS011;857;52.872;9.692;2022-10-31T01:32:39;20.50;;;14.80;;
1719;SDS011;857;52.872;9.692;2022-10-31T01:35:07;28.83;;;18.57;;
1719;SDS011;857;52.872;9.692;2022-10-31T01:37:35;21.37;;;15.60;;
1719;SDS011;857;52.872;9.692;2022-10-31T01:40:03;22.37;;;16.37;;
1719;SDS011;857;52.872;9.692;2022-10-31T01:42:31;22.10;;;16.50;;
1719;SDS011;857;52.872;9.692;2022-10-31T01:44:59;28.40;;;16.83;;
1719;SDS011;857;52.872;9.692;2022-10-31T01:47:39;21.77;;;14.50;;
1719;SDS011;857;52.872;9.692;2022-10-31T01:50:13;21.80;;;15.80;;
1719;SDS011;857;52.872;9.692;2022-10-31T01:52:44;16.70;;;13.47;;
1719;SDS011;857;52.872;9.692;2022-10-31T01:55:15;19.80;;;14.70;;
1719;SDS011;857;52.872;9.692;2022-10-31T01:57:44;20.13;;;15.57;;
1719;SDS011;857;52.872;9.692;2022-10-31T02:00:13;19.60;;;14.20;;
1719;SDS011;857;52.872;9.692;2022-10-31T02:02:42;22.43;;;15.37;;
1719;SDS011;857;52.872;9.692;2022-10-31T02:05:14;18.40;;;14.13;;
1719;SDS011;857;52.872;9.692;2022-10-31T02:07:45;24.43;;;14.73;;
1719;SDS011;857;52.872;9.692;2022-10-31T02:10:16;16.83;;;13.77;;
1719;SDS011;857;52.872;9.692;2022-10-31T02:12:44;21.03;;;15.63;;
1719;SDS011;857;52.872;9.692;2022-10-31T02:15:12;24.47;;;15.57;;
1719;SDS011;857;52.872;9.692;2022-10-31T02:17:43;25.40;;;15.20;;
1719;SDS011;857;52.872;9.692;2022-10-31T02:20:13;22.00;;;14.63;;
1719;SDS011;857;52.872;9.692;2022-10-31T02:22:54;21.07;;;14.43;;
1719;SDS011;857;52.872;9.692;2022-10-31T02:25:35;22.37;;;16.40;;
1719;SDS011;857;52.872;9.692;2022-10-31T02:28:13;26.83;;;18.33;;
1719;SDS011;857;52.872;9.692;2022-10-31T02:30:56;22.50;;;15.60;;
1719;SDS011;857;52.872;9.692;2022-10-31T02:33:26;23.40;;;17.80;;
1719;SDS011;857;52.872;9.692;2022-10-31T02:36:00;28.37;;;18.40;;
1719;SDS011;857;52.872;9.692;2022-10-31T02:38:34;26.50;;;18.33;;
1719;SDS011;857;52.872;9.692;2022-10-31T02:41:09;34.03;;;20.30;;
1719;SDS011;857;52.872;9.692;2022-10-31T02:43:44;23.50;;;16.60;;
1719;SDS011;857;52.872;9.692;2022-10-31T02:46:22;30.20;;;21.03;;
1719;SDS011;857;52.872;9.692;2022-10-31T02:48:52;31.40;;;20.53;;
1719;SDS011;857;52.872;9.692;2022-10-31T02:51:23;31.60;;;20.77;;
1719;SDS011;857;52.872;9.692;2022-10-31T02:53:51;24.93;;;18.10;;
1719;SDS011;857;52.872;9.692;2022-10-31T02:56:19;31.00;;;19.23;;
1719;SDS011;857;52.872;9.692;2022-10-31T02:58:47;27.07;;;19.60;;
1719;SDS011;857;52.872;9.692;2022-10-31T03:01:25;29.03;;;20.20;;
1719;SDS011;857;52.872;9.692;2022-10-31T03:04:00;31.37;;;20.03;;
1719;SDS011;857;52.872;9.692;2022-10-31T03:06:32;29.23;;;20.10;;
1719;SDS011;857;52.872;9.692;2022-10-31T03:09:03;27.90;;;19.00;;
1719;SDS011;857;52.872;9.692;2022-10-31T03:11:40;30.80;;;19.70;;
1719;SDS011;857;52.872;9.692;2022-10-31T03:14:12;30.30;;;20.03;;
1719;SDS011;857;52.872;9.692;2022-10-31T03:16:45;27.40;;;19.87;;
1719;SDS011;857;52.872;9.692;2022-10-31T03:19:14;30.47;;;21.00;;
1719;SDS011;857;52.872;9.692;2022-10-31T03:21:44;27.87;;;20.03;;
1719;SDS011;857;52.872;9.692;2022-10-31T03:24:13;30.40;;;18.77;;
1719;SDS011;857;52.872;9.692;2022-10-31T03:26:42;29.40;;;20.37;;
1719;SDS011;857;52.872;9.692;2022-10-31T03:29:12;30.67;;;20.23;;
1719;SDS011;857;52.872;9.692;2022-10-31T03:31:43;30.93;;;20.10;;
1719;SDS011;857;52.872;9.692;2022-10-31T03:34:13;25.03;;;19.03;;
1719;SDS011;857;52.872;9.692;2022-10-31T03:36:42;32.10;;;21.43;;
1719;SDS011;857;52.872;9.692;2022-10-31T03:39:13;28.23;;;20.47;;
1719;SDS011;857;52.872;9.692;2022-10-31T03:41:43;31.17;;;22.57;;
1719;SDS011;857;52.872;9.692;2022-10-31T03:44:19;33.57;;;19.97;;
1719;SDS011;857;52.872;9.692;2022-10-31T03:46:58;29.30;;;19.90;;
1719;SDS011;857;52.872;9.692;2022-10-31T03:49:26;30.17;;;20.93;;
1719;SDS011;857;52.872;9.692;2022-10-31T03:51:57;32.90;;;22.37;;
1719;SDS011;857;52.872;9.692;2022-10-31T03:54:27;31.80;;;21.77;;
1719;SDS011;857;52.872;9.692;2022-10-31T03:57:00;33.30;;;22.73;;
1719;SDS011;857;52.872;9.692;2022-10-31T03:59:32;28.90;;;20.27;;
1719;SDS011;857;52.872;9.692;2022-10-31T04:02:02;35.20;;;21.20;;
1719;SDS011;857;52.872;9.692;2022-10-31T04:04:31;40.80;;;22.30;;
1719;SDS011;857;52.872;9.692;2022-10-31T04:06:59;37.43;;;21.80;;
1719;SDS011;857;52.872;9.692;2022-10-31T04:09:28;42.33;;;22.73;;
1719;SDS011;857;52.872;9.692;2022-10-31T04:11:59;37.00;;;22.17;;
1719;SDS011;857;52.872;9.692;2022-10-31T04:14:53;51.57;;;25.47;;
1719;SDS011;857;52.872;9.692;2022-10-31T04:17:24;46.30;;;23.17;;
1719;SDS011;857;52.872;9.692;2022-10-31T04:19:54;34.63;;;19.90;;
1719;SDS011;857;52.872;9.692;2022-10-31T04:22:22;35.17;;;19.10;;
1719;SDS011;857;52.872;9.692;2022-10-31T04:24:51;33.20;;;21.33;;
1719;SDS011;857;52.872;9.692;2022-10-31T04:27:19;34.63;;;20.47;;
1719;SDS011;857;52.872;9.692;2022-10-31T04:29:47;43.80;;;22.33;;
1719;SDS011;857;52.872;9.692;2022-10-31T04:32:17;36.50;;;21.87;;
1719;SDS011;857;52.872;9.692;2022-10-31T04:34:46;36.77;;;22.77;;
1719;SDS011;857;52.872;9.692;2022-10-31T04:37:14;53.00;;;24.37;;
1719;SDS011;857;52.872;9.692;2022-10-31T04:39:42;41.30;;;24.10;;
1719;SDS011;857;52.872;9.692;2022-10-31T04:42:31;44.10;;;24.97;;
1719;SDS011;857;52.872;9.692;2022-10-31T04:45:02;53.43;;;24.07;;
1719;SDS011;857;52.872;9.692;2022-10-31T04:47:34;49.20;;;24.90;;
1719;SDS011;857;52.872;9.692;2022-10-31T04:50:03;54.63;;;23.80;;
1719;SDS011;857;52.872;9.692;2022-10-31T04:52:38;49.57;;;21.90;;
1719;SDS011;857;52.872;9.692;2022-10-31T04:55:07;40.33;;;20.60;;
1719;SDS011;857;52.872;9.692;2022-10-31T04:58:00;36.70;;;20.30;;
1719;SDS011;857;52.872;9.692;2022-10-31T05:00:33;34.17;;;21.40;;
1719;SDS011;857;52.872;9.692;2022-10-31T05:03:01;35.40;;;20.37;;
1719;SDS011;857;52.872;9.692;2022-10-31T05:05:30;32.57;;;21.63;;
1719;SDS011;857;52.872;9.692;2022-10-31T05:08:04;30.20;;;20.00;;
1719;SDS011;857;52.872;9.692;2022-10-31T05:10:35;32.70;;;21.97;;
1719;SDS011;857;52.872;9.692;2022-10-31T05:13:04;35.67;;;21.37;;
1719;SDS011;857;52.872;9.692;2022-10-31T05:15:50;40.50;;;23.30;;
1719;SDS011;857;52.872;9.692;2022-10-31T05:18:22;39.50;;;23.53;;
1719;SDS011;857;52.872;9.692;2022-10-31T05:21:04;49.13;;;24.87;;
1719;SDS011;857;52.872;9.692;2022-10-31T05:23:36;41.20;;;24.20;;
1719;SDS011;857;52.872;9.692;2022-10-31T05:26:06;45.70;;;24.33;;
1719;SDS011;857;52.872;9.692;2022-10-31T05:28:34;51.93;;;25.20;;
1719;SDS011;857;52.872;9.692;2022-10-31T05:31:04;48.13;;;24.67;;
1719;SDS011;857;52.872;9.692;2022-10-31T05:33:35;43.57;;;23.90;;
1719;SDS011;857;52.872;9.692;2022-10-31T05:36:22;43.20;;;25.00;;
1719;SDS011;857;52.872;9.692;2022-10-31T05:38:58;60.40;;;25.97;;
1719;SDS011;857;52.872;9.692;2022-10-31T05:41:34;46.17;;;25.17;;
1719;SDS011;857;52.872;9.692;2022-10-31T05:44:08;51.07;;;25.90;;
1719;SDS011;857;52.872;9.692;2022-10-31T05:46:51;52.13;;;28.20;;
1719;SDS011;857;52.872;9.692;2022-10-31T05:49:57;49.07;;;25.33;;
1719;SDS011;857;52.872;9.692;2022-10-31T05:52:38;53.13;;;26.80;;
1719;SDS011;857;52.872;9.692;2022-10-31T05:55:16;49.83;;;26.30;;
1719;SDS011;857;52.872;9.692;2022-10-31T05:57:58;50.10;;;26.20;;
1719;SDS011;857;52.872;9.692;2022-10-31T06:00:26;53.20;;;27.10;;
1719;SDS011;857;52.872;9.692;2022-10-31T06:03:04;58.77;;;27.57;;
1719;SDS011;857;52.872;9.692;2022-10-31T06:05:44;46.20;;;25.60;;
1719;SDS011;857;52.872;9.692;2022-10-31T06:08:14;52.20;;;25.93;;
1719;SDS011;857;52.872;9.692;2022-10-31T06:10:43;51.10;;;26.97;;
1719;SDS011;857;52.872;9.692;2022-10-31T06:13:12;56.90;;;28.27;;
1719;SDS011;857;52.872;9.692;2022-10-31T06:15:44;61.87;;;29.40;;
1719;SDS011;857;52.872;9.692;2022-10-31T06:18:13;52.03;;;28.60;;
1719;SDS011;857;52.872;9.692;2022-10-31T06:20:49;54.70;;;29.73;;
1719;SDS011;857;52.872;9.692;2022-10-31T06:23:19;60.27;;;30.17;;
1719;SDS011;857;52.872;9.692;2022-10-31T06:25:51;51.63;;;28.87;;
1719;SDS011;857;52.872;9.692;2022-10-31T06:28:18;90.70;;;31.80;;
1719;SDS011;857;52.872;9.692;2022-10-31T06:30:53;49.73;;;29.30;;
1719;SDS011;857;52.872;9.692;2022-10-31T06:33:21;61.87;;;30.50;;
1719;SDS011;857;52.872;9.692;2022-10-31T06:36:00;62.67;;;31.80;;
1719;SDS011;857;52.872;9.692;2022-10-31T06:38:30;74.43;;;32.23;;
1719;SDS011;857;52.872;9.692;2022-10-31T06:41:00;53.53;;;30.97;;
1719;SDS011;857;52.872;9.692;2022-10-31T06:43:37;66.00;;;29.73;;
1719;SDS011;857;52.872;9.692;2022-10-31T06:46:33;81.40;;;30.43;;
1719;SDS011;857;52.872;9.692;2022-10-31T06:49:16;57.30;;;28.80;;
1719;SDS011;857;52.872;9.692;2022-10-31T06:51:53;78.47;;;31.00;;
1719;SDS011;857;52.872;9.692;2022-10-31T06:54:23;61.20;;;30.40;;
1719;SDS011;857;52.872;9.692;2022-10-31T06:56:51;74.90;;;32.73;;
1719;SDS011;857;52.872;9.692;2022-10-31T06:59:18;57.20;;;31.87;;
1719;SDS011;857;52.872;9.692;2022-10-31T07:02:19;69.80;;;34.17;;
1719;SDS011;857;52.872;9.692;2022-10-31T07:04:48;89.50;;;33.37;;
1719;SDS011;857;52.872;9.692;2022-10-31T07:07:17;80.53;;;36.93;;
1719;SDS011;857;52.872;9.692;2022-10-31T07:09:48;72.53;;;36.13;;
1719;SDS011;857;52.872;9.692;2022-10-31T07:12:19;75.63;;;36.10;;
1719;SDS011;857;52.872;9.692;2022-10-31T07:14:54;89.00;;;40.27;;
1719;SDS011;857;52.872;9.692;2022-10-31T07:17:24;76.57;;;38.17;;
1719;SDS011;857;52.872;9.692;2022-10-31T07:19:54;72.50;;;38.27;;
1719;SDS011;857;52.872;9.692;2022-10-31T07:22:21;69.07;;;38.20;;
1719;SDS011;857;52.872;9.692;2022-10-31T07:24:51;65.77;;;37.47;;
1719;SDS011;857;52.872;9.692;2022-10-31T07:27:53;70.77;;;38.50;;
1719;SDS011;857;52.872;9.692;2022-10-31T07:30:21;64.67;;;38.20;;
1719;SDS011;857;52.872;9.692;2022-10-31T07:32:53;75.17;;;40.40;;
1719;SDS011;857;52.872;9.692;2022-10-31T07:35:22;62.13;;;38.50;;
1719;SDS011;857;52.872;9.692;2022-10-31T07:37:55;65.00;;;41.37;;
1719;SDS011;857;52.872;9.692;2022-10-31T07:40:24;71.47;;;41.23;;
1719;SDS011;857;52.872;9.692;2022-10-31T07:42:52;68.57;;;40.30;;
1719;SDS011;857;52.872;9.692;2022-10-31T07:45:38;82.70;;;43.10;;
1719;SDS011;857;52.872;9.692;2022-10-31T07:48:32;79.90;;;42.17;;
1719;SDS011;857;52.872;9.692;2022-10-31T07:51:18;81.23;;;44.30;;
1719;SDS011;857;52.872;9.692;2022-10-31T07:54:04;84.67;;;43.00;;
1719;SDS011;857;52.872;9.692;2022-10-31T07:56:33;87.43;;;45.00;;
1719;SDS011;857;52.872;9.692;2022-10-31T07:59:01;82.73;;;44.17;;
1719;SDS011;857;52.872;9.692;2022-10-31T08:01:28;90.27;;;43.13;;
1719;SDS011;857;52.872;9.692;2022-10-31T08:04:34;98.77;;;44.67;;
1719;SDS011;857;52.872;9.692;2022-10-31T08:07:21;94.83;;;46.87;;
1719;SDS011;857;52.872;9.692;2022-10-31T08:09:58;100.50;;;45.70;;
1719;SDS011;857;52.872;9.692;2022-10-31T08:12:31;96.07;;;44.70;;
1719;SDS011;857;52.872;9.692;2022-10-31T08:14:59;94.83;;;44.97;;
1719;SDS011;857;52.872;9.692;2022-10-31T08:17:27;115.27;;;45.20;;
1719;SDS011;857;52.872;9.692;2022-10-31T08:19:58;128.50;;;47.57;;
1719;SDS011;857;52.872;9.692;2022-10-31T08:22:32;112.77;;;46.17;;
1719;SDS011;857;52.872;9.692;2022-10-31T08:25:01;104.67;;;45.70;;
1719;SDS011;857;52.872;9.692;2022-10-31T08:27:29;108.13;;;42.43;;
1719;SDS011;857;52.872;9.692;2022-10-31T08:30:00;119.23;;;45.63;;
1719;SDS011;857;52.872;9.692;2022-10-31T08:32:28;109.80;;;47.40;;
1719;SDS011;857;52.872;9.692;2022-10-31T08:35:14;118.53;;;44.87;;
1719;SDS011;857;52.872;9.692;2022-10-31T08:38:01;108.60;;;42.43;;
1719;SDS011;857;52.872;9.692;2022-10-31T08:40:35;102.50;;;41.63;;
1719;SDS011;857;52.872;9.692;2022-10-31T08:43:03;97.77;;;44.20;;
1719;SDS011;857;52.872;9.692;2022-10-31T08:45:35;102.47;;;42.63;;
1719;SDS011;857;52.872;9.692;2022-10-31T08:48:09;112.83;;;42.53;;
1719;SDS011;857;52.872;9.692;2022-10-31T08:50:37;108.37;;;42.93;;
1719;SDS011;857;52.872;9.692;2022-10-31T08:53:07;126.47;;;46.37;;
1719;SDS011;857;52.872;9.692;2022-10-31T08:55:39;112.67;;;36.93;;
1719;SDS011;857;52.872;9.692;2022-10-31T08:58:22;120.73;;;41.90;;
1719;SDS011;857;52.872;9.692;2022-10-31T09:00:54;111.03;;;41.77;;
1719;SDS011;857;52.872;9.692;2022-10-31T09:03:25;117.30;;;43.30;;
1719;SDS011;857;52.872;9.692;2022-10-31T09:05:54;112.23;;;44.53;;
1719;SDS011;857;52.872;9.692;2022-10-31T09:08:22;112.80;;;43.83;;
1719;SDS011;857;52.872;9.692;2022-10-31T09:10:50;115.17;;;43.40;;
1719;SDS011;857;52.872;9.692;2022-10-31T09:13:33;98.30;;;36.33;;
1719;SDS011;857;52.872;9.692;2022-10-31T09:16:17;113.27;;;36.30;;
1719;SDS011;857;52.872;9.692;2022-10-31T09:18:45;116.33;;;37.00;;
1719;SDS011;857;52.872;9.692;2022-10-31T09:21:15;115.97;;;36.33;;
1719;SDS011;857;52.872;9.692;2022-10-31T09:23:45;113.63;;;37.20;;
1719;SDS011;857;52.872;9.692;2022-10-31T09:26:14;95.27;;;34.33;;
1719;SDS011;857;52.872;9.692;2022-10-31T09:29:13;48.90;;;23.70;;
1719;SDS011;857;52.872;9.692;2022-10-31T09:31:44;46.67;;;23.67;;
1719;SDS011;857;52.872;9.692;2022-10-31T09:34:27;53.47;;;24.57;;
1719;SDS011;857;52.872;9.692;2022-10-31T09:37:20;72.83;;;30.37;;
1719;SDS011;857;52.872;9.692;2022-10-31T09:39:50;101.63;;;37.33;;
1719;SDS011;857;52.872;9.692;2022-10-31T09:42:36;39.53;;;21.43;;
1719;SDS011;857;52.872;9.692;2022-10-31T09:45:26;105.17;;;41.93;;
1719;SDS011;857;52.872;9.692;2022-10-31T09:48:03;66.90;;;27.67;;
1719;SDS011;857;52.872;9.692;2022-10-31T09:50:36;39.00;;;20.07;;
1719;SDS011;857;52.872;9.692;2022-10-31T09:53:39;80.73;;;33.17;;
1719;SDS011;857;52.872;9.692;2022-10-31T09:56:09;34.03;;;18.47;;
1719;SDS011;857;52.872;9.692;2022-10-31T09:58:40;63.47;;;27.00;;
1719;SDS011;857;52.872;9.692;2022-10-31T10:01:18;71.63;;;29.67;;
1719;SDS011;857;52.872;9.692;2022-10-31T10:03:51;25.80;;;15.90;;
1719;SDS011;857;52.872;9.692;2022-10-31T10:06:50;59.83;;;26.93;;
1719;SDS011;857;52.872;9.692;2022-10-31T10:09:37;31.20;;;15.83;;
1719;SDS011;857;52.872;9.692;2022-10-31T10:12:28;21.80;;;13.23;;
1719;SDS011;857;52.872;9.692;2022-10-31T10:15:13;16.67;;;11.40;;
1719;SDS011;857;52.872;9.692;2022-10-31T10:17:46;13.67;;;10.50;;
1719;SDS011;857;52.872;9.692;2022-10-31T10:20:21;21.40;;;12.57;;
1719;SDS011;857;52.872;9.692;2022-10-31T10:22:53;39.63;;;21.43;;
1719;SDS011;857;52.872;9.692;2022-10-31T10:25:23;14.57;;;9.93;;
1719;SDS011;857;52.872;9.692;2022-10-31T10:27:54;12.40;;;9.73;;
1719;SDS011;857;52.872;9.692;2022-10-31T10:30:26;20.57;;;12.57;;
1719;SDS011;857;52.872;9.692;2022-10-31T10:32:58;34.00;;;18.57;;
1719;SDS011;857;52.872;9.692;2022-10-31T10:35:29;14.97;;;10.33;;
1719;SDS011;857;52.872;9.692;2022-10-31T10:38:03;11.87;;;9.10;;
1719;SDS011;857;52.872;9.692;2022-10-31T10:40:31;13.00;;;8.97;;
1719;SDS011;857;52.872;9.692;2022-10-31T10:43:01;24.90;;;14.40;;
1719;SDS011;857;52.872;9.692;2022-10-31T10:45:45;12.10;;;8.97;;
1719;SDS011;857;52.872;9.692;2022-10-31T10:48:33;13.67;;;9.77;;
1719;SDS011;857;52.872;9.692;2022-10-31T10:51:05;28.77;;;15.40;;
1719;SDS011;857;52.872;9.692;2022-10-31T10:53:38;9.83;;;7.43;;
1719;SDS011;857;52.872;9.692;2022-10-31T10:56:27;9.80;;;8.10;;
1719;SDS011;857;52.872;9.692;2022-10-31T10:58:57;20.37;;;12.67;;
1719;SDS011;857;52.872;9.692;2022-10-31T11:01:24;32.13;;;17.30;;
1719;SDS011;857;52.872;9.692;2022-10-31T11:03:52;18.57;;;11.10;;
1719;SDS011;857;52.872;9.692;2022-10-31T11:06:22;16.23;;;8.27;;
1719;SDS011;857;52.872;9.692;2022-10-31T11:08:51;10.37;;;7.40;;
1719;SDS011;857;52.872;9.692;2022-10-31T11:11:23;9.73;;;7.67;;
1719;SDS011;857;52.872;9.692;2022-10-31T11:13:55;12.30;;;8.17;;
1719;SDS011;857;52.872;9.692;2022-10-31T11:16:28;28.00;;;16.07;;
1719;SDS011;857;52.872;9.692;2022-10-31T11:19:05;25.97;;;13.53;;
1719;SDS011;857;52.872;9.692;2022-10-31T11:21:35;11.05;;;8.18;;
1719;SDS011;857;52.872;9.692;2022-10-31T11:24:03;26.60;;;15.20;;
1719;SDS011;857;52.872;9.692;2022-10-31T11:26:31;30.90;;;16.73;;
1719;SDS011;857;52.872;9.692;2022-10-31T11:29:00;36.33;;;18.53;;
1719;SDS011;857;52.872;9.692;2022-10-31T11:31:29;33.70;;;18.10;;
1719;SDS011;857;52.872;9.692;2022-10-31T11:33:59;38.27;;;19.73;;
1719;SDS011;857;52.872;9.692;2022-10-31T11:36:29;41.03;;;22.05;;
1719;SDS011;857;52.872;9.692;2022-10-31T11:38:58;35.83;;;17.90;;
1719;SDS011;857;52.872;9.692;2022-10-31T11:41:27;46.45;;;23.13;;
1719;SDS011;857;52.872;9.692;2022-10-31T11:43:57;42.20;;;21.50;;
1719;SDS011;857;52.872;9.692;2022-10-31T11:46:27;46.23;;;20.27;;
1719;SDS011;857;52.872;9.692;2022-10-31T11:48:56;25.23;;;13.30;;
1719;SDS011;857;52.872;9.692;2022-10-31T11:51:25;22.37;;;12.07;;
1719;SDS011;857;52.872;9.692;2022-10-31T11:53:54;37.57;;;19.93;;
1719;SDS011;857;52.872;9.692;2022-10-31T11:56:24;18.50;;;11.43;;
1719;SDS011;857;52.872;9.692;2022-10-31T11:58:55;19.40;;;10.90;;
1719;SDS011;857;52.872;9.692;2022-10-31T12:01:24;17.40;;;9.23;;
1719;SDS011;857;52.872;9.692;2022-10-31T12:03:54;14.23;;;8.50;;
1719;SDS011;857;52.872;9.692;2022-10-31T12:06:27;22.50;;;12.23;;
1719;SDS011;857;52.872;9.692;2022-10-31T12:08:55;28.63;;;16.20;;
1719;SDS011;857;52.872;9.692;2022-10-31T12:11:31;11.97;;;8.43;;
1719;SDS011;857;52.872;9.692;2022-10-31T12:14:04;25.30;;;12.57;;
1719;SDS011;857;52.872;9.692;2022-10-31T12:16:34;31.47;;;16.43;;
1719;SDS011;857;52.872;9.692;2022-10-31T12:19:04;17.00;;;8.73;;
1719;SDS011;857;52.872;9.692;2022-10-31T12:21:55;24.10;;;13.00;;
1719;SDS011;857;52.872;9.692;2022-10-31T12:27:19;27.10;;;14.77;;
1719;SDS011;857;52.872;9.692;2022-10-31T12:29:55;13.67;;;7.50;;
1719;SDS011;857;52.872;9.692;2022-10-31T12:32:29;23.73;;;14.80;;
1719;SDS011;857;52.872;9.692;2022-10-31T12:37:49;13.40;;;7.13;;
1719;SDS011;857;52.872;9.692;2022-10-31T12:40:23;12.37;;;7.70;;
1719;SDS011;857;52.872;9.692;2022-10-31T12:42:58;14.57;;;7.83;;
1719;SDS011;857;52.872;9.692;2022-10-31T12:45:32;23.00;;;13.20;;
1719;SDS011;857;52.872;9.692;2022-10-31T12:48:06;23.63;;;13.50;;
1719;SDS011;857;52.872;9.692;2022-10-31T12:50:43;21.33;;;12.27;;
1719;SDS011;857;52.872;9.692;2022-10-31T12:53:18;15.93;;;9.40;;
1719;SDS011;857;52.872;9.692;2022-10-31T12:55:51;20.60;;;11.83;;
1719;SDS011;857;52.872;9.692;2022-10-31T12:58:24;11.17;;;7.60;;
1719;SDS011;857;52.872;9.692;2022-10-31T13:00:55;13.50;;;7.57;;
1719;SDS011;857;52.872;9.692;2022-10-31T13:03:26;14.10;;;7.83;;
1719;SDS011;857;52.872;9.692;2022-10-31T13:05:57;12.57;;;7.80;;
1719;SDS011;857;52.872;9.692;2022-10-31T13:08:26;13.90;;;7.93;;
1719;SDS011;857;52.872;9.692;2022-10-31T13:10:58;14.70;;;7.43;;
1719;SDS011;857;52.872;9.692;2022-10-31T13:13:32;12.53;;;6.40;;
1719;SDS011;857;52.872;9.692;2022-10-31T13:16:02;10.47;;;5.70;;
1719;SDS011;857;52.872;9.692;2022-10-31T13:18:32;10.77;;;7.20;;
1719;SDS011;857;52.872;9.692;2022-10-31T13:21:02;13.10;;;8.70;;
1719;SDS011;857;52.872;9.692;2022-10-31T13:23:31;9.70;;;7.33;;
1719;SDS011;857;52.872;9.692;2022-10-31T13:26:01;17.97;;;10.83;;
1719;SDS011;857;52.872;9.692;2022-10-31T13:28:33;12.00;;;7.00;;
1719;SDS011;857;52.872;9.692;2022-10-31T13:31:02;15.50;;;10.37;;
1719;SDS011;857;52.872;9.692;2022-10-31T13:33:31;11.30;;;7.10;;
1719;SDS011;857;52.872;9.692;2022-10-31T13:36:05;15.60;;;8.50;;
1719;SDS011;857;52.872;9.692;2022-10-31T13:38:36;11.20;;;7.13;;
1719;SDS011;857;52.872;9.692;2022-10-31T13:41:06;20.43;;;10.27;;
1719;SDS011;857;52.872;9.692;2022-10-31T13:43:43;18.50;;;11.30;;
1719;SDS011;857;52.872;9.692;2022-10-31T13:46:21;8.97;;;6.27;;
1719;SDS011;857;52.872;9.692;2022-10-31T13:48:49;16.83;;;10.80;;
1719;SDS011;857;52.872;9.692;2022-10-31T13:51:24;11.33;;;6.97;;
1719;SDS011;857;52.872;9.692;2022-10-31T13:53:58;11.57;;;7.03;;
1719;SDS011;857;52.872;9.692;2022-10-31T13:56:26;13.93;;;8.40;;
1719;SDS011;857;52.872;9.692;2022-10-31T14:01:47;12.83;;;8.40;;
1719;SDS011;857;52.872;9.692;2022-10-31T14:04:15;11.63;;;6.97;;
1719;SDS011;857;52.872;9.692;2022-10-31T14:06:45;12.00;;;7.63;;
1719;SDS011;857;52.872;9.692;2022-10-31T14:09:19;13.83;;;7.70;;
1719;SDS011;857;52.872;9.692;2022-10-31T14:11:48;10.93;;;6.73;;
1719;SDS011;857;52.872;9.692;2022-10-31T14:14:16;13.63;;;8.27;;
1719;SDS011;857;52.872;9.692;2022-10-31T14:16:46;9.50;;;6.03;;
1719;SDS011;857;52.872;9.692;2022-10-31T14:19:20;13.83;;;7.90;;
1719;SDS011;857;52.872;9.692;2022-10-31T14:21:48;9.57;;;6.53;;
1719;SDS011;857;52.872;9.692;2022-10-31T14:24:30;9.40;;;5.93;;
1719;SDS011;857;52.872;9.692;2022-10-31T14:26:59;13.00;;;7.57;;
1719;SDS011;857;52.872;9.692;2022-10-31T14:29:27;12.43;;;7.20;;
1719;SDS011;857;52.872;9.692;2022-10-31T14:31:59;10.53;;;6.13;;
1719;SDS011;857;52.872;9.692;2022-10-31T14:34:29;12.13;;;7.90;;
1719;SDS011;857;52.872;9.692;2022-10-31T14:37:19;12.57;;;8.20;;
1719;SDS011;857;52.872;9.692;2022-10-31T14:39:51;8.90;;;6.50;;
1719;SDS011;857;52.872;9.692;2022-10-31T14:42:29;9.37;;;7.10;;
1719;SDS011;857;52.872;9.692;2022-10-31T14:45:13;10.10;;;7.10;;
1719;SDS011;857;52.872;9.692;2022-10-31T14:47:47;10.40;;;7.43;;
1719;SDS011;857;52.872;9.692;2022-10-31T14:50:22;11.47;;;6.83;;
1719;SDS011;857;52.872;9.692;2022-10-31T14:52:52;13.60;;;8.53;;
1719;SDS011;857;52.872;9.692;2022-10-31T14:55:21;11.97;;;7.13;;
1719;SDS011;857;52.872;9.692;2022-10-31T14:57:51;10.20;;;6.43;;
1719;SDS011;857;52.872;9.692;2022-10-31T15:00:20;9.90;;;6.90;;
1719;SDS011;857;52.872;9.692;2022-10-31T15:02:53;8.30;;;6.43;;
1719;SDS011;857;52.872;9.692;2022-10-31T15:05:25;11.77;;;7.30;;
1719;SDS011;857;52.872;9.692;2022-10-31T15:07:53;7.80;;;5.70;;
1719;SDS011;857;52.872;9.692;2022-10-31T15:12:50;9.95;;;7.20;;
1719;SDS011;857;52.872;9.692;2022-10-31T15:15:22;10.40;;;6.70;;
1719;SDS011;857;52.872;9.692;2022-10-31T15:17:53;12.00;;;7.97;;
1719;SDS011;857;52.872;9.692;2022-10-31T15:20:21;12.97;;;7.97;;
1719;SDS011;857;52.872;9.692;2022-10-31T15:22:49;11.10;;;7.17;;
1719;SDS011;857;52.872;9.692;2022-10-31T15:25:18;18.13;;;8.63;;
1719;SDS011;857;52.872;9.692;2022-10-31T15:27:46;12.60;;;9.00;;
1719;SDS011;857;52.872;9.692;2022-10-31T15:30:18;13.40;;;7.80;;
1719;SDS011;857;52.872;9.692;2022-10-31T15:32:46;11.30;;;7.57;;
1719;SDS011;857;52.872;9.692;2022-10-31T15:35:21;12.40;;;7.63;;
1719;SDS011;857;52.872;9.692;2022-10-31T15:37:51;16.67;;;8.07;;
1719;SDS011;857;52.872;9.692;2022-10-31T15:40:19;15.00;;;8.37;;
1719;SDS011;857;52.872;9.692;2022-10-31T15:42:49;12.20;;;7.50;;
1719;SDS011;857;52.872;9.692;2022-10-31T15:45:19;10.80;;;7.90;;
1719;SDS011;857;52.872;9.692;2022-10-31T15:50:26;12.77;;;7.90;;
1719;SDS011;857;52.872;9.692;2022-10-31T15:52:54;12.67;;;7.27;;